Weather observations for the past three days for
Hebbronville, Jim Hogg County Airport
Imperial (Metric)
Date Time (cdt) Wind (mph) Vis. (mi.) Weather Sky Cond. Temperature (ºF) Relative Humidity Wind Chill (°F) Heat Index (°F) Pressure Precipitation (in)
Air Dwpt 6 hour altimeter (in) sea level (mb) 1 hr 3 hr 6 hr
Max. Min.
31 12:35 S 10 10.00 Fair CLR 95.7 68 40% 101 29.95 0.0
31 12:15 S 9 G 16 10.00 Fair CLR 94.3 69.3 44% 100 29.96 0.0
31 11:55 S 12 10.00 Fair CLR 92.5 71.8 51% 100 29.97 0.0
31 11:35 SE 12 G 20 10.00 Fair CLR 91.4 72.7 54% 100 29.97 0.0
31 11:15 S 9 10.00 Fair CLR 91 72.9 55% 99 29.97 0.0
31 10:55 S 13 10.00 Fair CLR 90 74.5 60% 100 29.97 0.0
31 10:35 S 9 10.00 Fair CLR 88.7 75 64% 99 29.97 0.0
31 10:15 S 12 10.00 Fair CLR 86.7 76.3 71% 97 29.97 0.0
31 09:55 S 13 10.00 Fair CLR 85.5 77.2 76% 96 29.97 0.0
31 09:35 S 13 9.00 Fair CLR 84.2 78.1 82% 95 29.97 0.0
31 09:15 S 9 10.00 Fair CLR 82.4 79 89% 93 29.97 0.0
31 08:55 SE 9 10.00 Fair CLR 80.4 79 95% 88 29.97 0.0
31 08:35 SE 10 10.00 Fair CLR 79.5 79 98% 85 29.96 0.0
31 08:15 SE 8 9.00 Fair CLR 78.1 78.1 100% 81 29.95 0.0
31 07:55 SE 7 8.00 Fair CLR 77 77 100% 78 29.95 0.0
31 07:35 SE 7 8.00 Fair CLR 76.6 76.6 100% 77 29.95 0.0
31 07:15 SE 7 8.00 Fair CLR 76.6 76.6 100% 77 29.94 0.0
31 06:55 E 6 10.00 Fair CLR 76.8 76.8 81.3 76.8 100% 77 29.94 0.0
31 06:35 E 7 10.00 Fair CLR 77 77 100% 78 29.93 0.0
31 06:15 E 6 10.00 Fair CLR 77 77 100% 78 29.93 0.0
31 05:55 E 6 10.00 Fair CLR 77.4 77.4 100% 79 29.93 0.0
31 05:35 E 6 10.00 Fair CLR 77.5 77.5 100% 79 29.93 0.0
31 05:15 E 6 10.00 Fair CLR 77.7 77.7 100% 80 29.94 0.0
31 04:55 SE 6 9.00 Fair CLR 77.7 77.7 100% 80 29.94 0.0
31 04:35 E 7 9.00 Fair CLR 77.9 77.5 99% 80 29.93 0.0
31 04:15 E 6 9.00 Fair CLR 78.6 77.4 96% 82 29.93 0.0
31 03:55 SE 5 10.00 Fair CLR 78.8 77.2 95% 83 29.94 0.0
31 03:35 SE 5 10.00 Fair CLR 79 77.4 95% 83 29.94 0.0
31 03:15 SE 6 10.00 Fair CLR 79.3 77.4 94% 84 29.95 0.0
31 02:55 S 8 10.00 Fair CLR 79.9 77.4 92% 86 29.95 0.0
31 02:35 S 7 10.00 Fair CLR 80.2 77.7 92% 87 29.95 0.0
31 02:15 S 8 10.00 Fair CLR 80.4 78.3 93% 87 29.95 0.0
31 01:55 SE 8 9.00 Fair CLR 80.6 78.4 93% 88 29.96 0.0
31 01:35 SE 9 10.00 Fair CLR 80.8 78.6 93% 88 29.96 0.0
31 01:15 SE 10 10.00 Fair CLR 81.1 78.6 92% 89 29.96 0.0
31 00:55 SE 13 10.00 Fair CLR 81.5 78.3 93.9 81.5 90% 90 29.96 0.0
31 00:35 SE 12 10.00 Fair CLR 81.7 78.4 90% 90 29.96 0.0
31 00:15 SE 15 G 20 9.00 Fair CLR 82 78.4 89% 91 29.96 0.0
30 23:55 SE 13 G 17 10.00 Fair CLR 82.2 78.6 89% 92 29.95 0.0
30 23:35 SE 10 9.00 Fair CLR 82.8 78.8 88% 93 29.95 0.0
30 23:15 SE 14 G 18 9.00 Fair CLR 83.1 78.4 86% 94 29.95 0.0
30 22:55 SE 10 9.00 Fair CLR 83.3 77.7 83% 93 29.94 0.0
30 22:35 SE 13 G 17 9.00 Fair CLR 83.8 76.8 79% 93 29.94 0.0
30 22:15 E 12 10.00 Fair CLR 84.4 75.9 76% 93 29.93 0.0
30 21:55 E 12 G 21 9.00 Fair CLR 85.1 75.2 72% 94 29.92 0.0
30 21:35 E 14 10.00 Fair CLR 85.6 75 71% 94 29.91 0.0
30 21:15 E 14 9.00 Fair CLR 86.4 74.8 69% 95 29.9 0.0
30 20:55 SE 15 9.00 Fair CLR 87.6 73.9 64% 96 29.89 0.0
30 20:35 SE 17 G 23 9.00 Fair CLR 88.3 73.9 62% 97 29.89 0.0
30 20:15 E 15 9.00 Fair CLR 89.1 73.8 61% 98 29.88 0.0
30 19:55 SE 18 G 23 8.00 Fair CLR 90.3 73.6 58% 99 29.88 0.0
30 19:35 SE 22 8.00 Fair and Breezy CLR 91.4 73.8 56% 101 29.87 0.0
30 19:15 E 16 G 24 8.00 Fair CLR 92.8 73.6 54% 102 29.86 0.0
30 18:55 E 22 G 26 8.00 Fair and Breezy CLR 94.8 73 101.3 94.8 49% 104 29.86 0.0
30 18:35 E 14 8.00 Fair CLR 96.1 72.1 46% 105 29.86 0.0
30 18:15 SE 18 G 26 8.00 Fair CLR 96.3 72 46% 105 29.85 0.0
30 17:55 E 20 G 26 7.00 Fair CLR 96.1 72.9 47% 106 29.85 0.0
30 17:35 E 23 G 28 8.00 Fair and Breezy CLR 96.6 71.8 45% 105 29.85 0.0
30 17:15 E 9 8.00 Fair CLR 100.6 62.4 29% 102 29.84 0.0
30 16:55 SE 10 G 20 9.00 Fair CLR 101.1 63 29% 103 29.84 0.0
30 16:35 SE 7 9.00 A Few Clouds FEW340 99.9 63.1 30% 102 29.85 0.0
30 16:15 S 10 8.00 Fair CLR 100 64 31% 103 29.86 0.0
30 15:55 S 10 8.00 Fair CLR 99.3 64.8 32% 102 29.87 0.0
30 15:35 SE 9 9.00 Fair CLR 99.5 64 31% 102 29.88 0.0
30 15:15 S 12 9.00 Fair CLR 100.4 65.1 32% 104 29.89 0.0
30 14:55 E 12 G 18 9.00 Fair CLR 98.6 65.8 34% 102 29.91 0.0
30 14:35 SE 12 G 20 9.00 A Few Clouds FEW370 97.3 66.4 36% 101 29.92 0.0
30 14:15 E 9 9.00 Fair CLR 95.9 67.3 39% 100 29.93 0.0
30 13:55 S 10 G 18 9.00 A Few Clouds FEW330 97.3 67.3 37% 102 29.94 0.0
30 13:35 S 5 G 17 9.00 Fair CLR 96.3 67.8 40% 101 29.94 0.0
30 13:15 SE 12 G 17 9.00 A Few Clouds FEW370 95.9 69.6 43% 102 29.95 0.0
30 12:55 S 5 G 18 9.00 Fair CLR 94.6 70.5 95.5 75.4 46% 102 29.97 0.0
30 12:35 SE 7 G 22 9.00 Fair CLR 95.2 71.2 46% 103 29.98 0.0
30 12:15 E 10 G 18 9.00 Fair CLR 94.3 70.7 46% 101 29.98 0.0
30 11:55 SE 13 9.00 Fair CLR 92.8 72.7 52% 101 29.99 0.0
30 11:35 SE 10 G 20 9.00 Fair CLR 91.6 73.6 56% 101 30 0.0
30 11:15 SE 7 9.00 Fair CLR 90.7 73.9 58% 100 30 0.0
30 10:55 S 12 9.00 Fair CLR 88.9 75.2 64% 99 30 0.0
30 10:35 S 12 G 18 8.00 Fair CLR 88 75.7 67% 99 30 0.0
30 10:15 S 13 8.00 Fair CLR 86.9 76.3 71% 98 29.99 0.0
30 09:55 SE 10 8.00 Fair CLR 84.9 77.2 78% 96 29.99 0.0
30 09:35 SE 7 7.00 Fair CLR 82.8 78.1 86% 93 29.99 0.0
30 09:15 Vrbl 7 8.00 Partly Cloudy SCT007 81.7 79.2 92% 91 29.98 0.0
30 08:55 SE 7 8.00 Overcast OVC005 79 78.8 99% 84 29.98 0.0
30 08:35 Vrbl 6 8.00 Mostly Cloudy BKN005 77.9 77.9 100% 80 29.98 0.0
30 08:15 SE 7 8.00 A Few Clouds FEW002 77 77 100% 78 29.98 0.0
30 07:55 SE 7 6.00 Fog/Mist OVC002 75.9 75.9 100% 75 29.97 0.0
30 07:35 E 5 7.00 Overcast OVC002 75.7 75.7 100% 74 29.97 0.0
30 07:15 SE 5 7.00 Mostly Cloudy BKN002 75.4 75.4 100% 73 29.97 0.0
30 06:55 SE 5 9.00 Fair CLR 75.7 75.7 80.4 75.7 100% 74 29.96 0.0
30 06:35 E 5 10.00 Fair CLR 75.9 75.9 100% 75 29.96 0.0
30 06:15 SE 5 10.00 Fair CLR 76.1 76.1 100% 75 29.95 0.0
30 05:55 SE 5 10.00 Fair CLR 76.3 76.3 100% 76 29.96 0.0
30 05:35 SE 5 10.00 Fair CLR 76.5 76.5 100% 76 29.96 0.0
30 05:15 SE 3 10.00 Fair CLR 76.8 76.8 100% 77 29.95 0.0
30 04:55 E 3 10.00 Fair CLR 77.5 77.2 99% 79 29.96 0.0
30 04:35 SE 5 10.00 Fair CLR 77.5 77 98% 79 29.96 0.0
30 04:15 SE 6 10.00 Fair CLR 77.9 77 97% 80 29.96 0.0
30 03:55 SE 6 10.00 Fair CLR 77.9 77 97% 80 29.96 0.0
30 03:35 SE 7 10.00 Fair CLR 78.1 77.2 97% 81 29.96 0.0
30 03:15 SE 7 10.00 Fair CLR 78.3 77.4 97% 81 29.97 0.0
30 02:55 SE 7 10.00 Fair CLR 78.6 77.4 96% 82 29.97 0.0
30 02:35 SE 6 10.00 Fair CLR 78.8 77.5 96% 83 29.98 0.0
30 02:15 SE 6 10.00 Fair CLR 79.3 77.5 94% 84 29.99 0.0
30 01:55 SE 7 10.00 Fair CLR 79.7 77.5 93% 85 29.99 0.0
30 01:35 SE 8 10.00 Fair CLR 79.9 77.7 93% 86 29.99 0.0
30 01:15 SE 7 10.00 Fair CLR 80.4 77.9 92% 87 29.99 0.0
30 00:55 SE 9 10.00 Fair CLR 80.6 77.7 93.2 80.6 91% 88 29.99 0.0
30 00:35 SE 9 G 17 10.00 Fair CLR 81 77.7 90% 88 29.99 0.0
30 00:15 SE 8 10.00 Fair CLR 81.3 77.5 88% 89 29.99 0.0
29 23:55 SE 9 10.00 Fair CLR 81.9 77 85% 90 29.99 0.0
29 23:35 SE 9 10.00 Fair CLR 82 76.8 84% 90 29.99 0.0
29 23:15 SE 10 10.00 Fair CLR 82.4 76.1 81% 90 29.99 0.0
29 22:55 SE 10 10.00 Fair CLR 83.5 74.8 75% 91 29.99 0.0
29 22:35 SE 12 10.00 Fair CLR 83.8 74.1 73% 91 29.98 0.0
29 22:15 SE 12 G 18 10.00 Fair CLR 84.4 73 69% 91 29.98 0.0
29 21:55 E 13 10.00 Fair CLR 85.3 73 67% 92 29.97 0.0
29 21:35 SE 12 10.00 Fair CLR 85.8 72.5 65% 92 29.96 0.0
29 21:15 SE 13 10.00 Fair CLR 86.5 70.9 60% 92 29.95 0.0
29 20:55 SE 15 G 21 10.00 Fair CLR 87.8 69.8 55% 93 29.94 0.0
29 20:35 SE 16 G 22 10.00 Fair CLR 88.7 70 54% 94 29.94 0.0
29 20:15 SE 14 10.00 Fair CLR 90 71.1 54% 96 29.93 0.0
29 19:55 SE 14 9.00 Fair CLR 90.7 71.6 54% 98 29.93 0.0
29 19:35 SE 12 9.00 Fair CLR 91.6 71.6 52% 99 29.93 0.0
29 19:15 SE 15 G 20 9.00 Fair CLR 92.1 71.4 51% 99 29.92 0.0
29 18:55 SE 14 9.00 Fair CLR 93.6 70.2 100 93.6 47% 100 29.92 0.0
29 18:35 SE 14 G 21 8.00 Fair CLR 94.8 68.9 43% 100 29.91 0.0
29 18:15 SE 16 G 21 8.00 Fair CLR 96.6 68.9 41% 102 29.91 0.0
29 17:55 SE 12 9.00 Fair CLR 98.8 67.1 36% 104 29.9 0.0
29 17:35 SE 13 G 18 9.00 Fair CLR 99 67.1 35% 104 29.9 0.0
29 17:15 SE 7 G 17 9.00 Fair CLR 98.4 67.3 36% 103 29.9 0.0
29 16:55 SE 10 9.00 Fair CLR 98.8 67.1 36% 104 29.91 0.0
29 16:35 SE 16 G 24 10.00 Fair CLR 99 67.8 36% 104 29.91 0.0
29 16:15 SE 10 G 17 10.00 Fair CLR 99.7 64.8 32% 103 29.92 0.0
29 15:55 E 12 G 17 9.00 Fair CLR 99.5 64.9 32% 103 29.93 0.0
29 15:35 S 6 G 17 9.00 Fair CLR 99.1 65.1 33% 103 29.94 0.0
29 15:15 SE 10 9.00 Fair CLR 97.7 65.5 35% 101 29.95 0.0
29 14:55 Vrbl 7 9.00 Fair CLR 96.6 65.5 36% 100 29.96 0.0
29 14:35 SE 12 G 18 9.00 Fair CLR 97.3 65.7 35% 101 29.97 0.0
29 14:15 SE 13 G 20 9.00 A Few Clouds FEW310 97.2 66.7 37% 101 29.98 0.0
29 13:55 SE 14 9.00 A Few Clouds FEW320 96.8 67.3 38% 101 29.99 0.0
29 13:35 S 10 G 16 9.00 Partly Cloudy FEW310 SCT370 95.7 68 40% 101 30.01 0.0
29 13:15 SE 7 G 16 9.00 A Few Clouds FEW290 94.8 67.6 41% 99 30.01 0.0
29 12:55 S 13 10.00 Fair CLR 94.5 68.5 96.1 75 43% 100 30.03 0.0
29 12:35 SE 10 G 16 9.00 Fair CLR 95.9 68.5 41% 101 30.03 0.0
29 11:15 SE 10 G 25 9.00 Fair CLR 90.1 72.7 57% 98 30.05 0.0
29 10:55 SE 12 8.00 Fair CLR 88.5 73.9 62% 97 30.06 0.0
29 10:35 SE 9 8.00 Fair CLR 87.6 74.8 66% 97 30.05 0.0
29 10:15 SE 8 8.00 Fair CLR 87.3 75.9 69% 98 30.05 0.0
29 09:55 SE 10 8.00 Fair CLR 84.9 77.2 78% 96 30.05 0.0
29 09:35 SE 8 8.00 Fair CLR 84.6 78.4 82% 96 30.04 0.0
29 09:15 SE 9 8.00 Fair CLR 82.2 79 90% 92 30.04 0.0
29 08:55 SE 6 8.00 Fair CLR 80.4 78.8 95% 88 30.03 0.0
29 08:35 SE 6 8.00 Fair CLR 78.8 78.1 98% 83 30.02 0.0
29 08:15 E 6 9.00 Fair CLR 77 77 100% 78 30.02 0.0
29 07:55 E 3 7.00 Fair CLR 75.2 75.2 100% 73 30.02 0.0
29 07:35 Calm 8.00 Fair CLR 75 75 100% 72 30.01 0.0
29 07:15 E 5 8.00 Fair CLR 75.6 75.6 100% 74 30.01 0.0
29 06:55 E 6 9.00 Fair CLR 75 75 81.1 74.8 100% 72 30 0.0
29 06:35 E 3 10.00 Fair CLR 74.8 74.8 100% 30 0.0
29 06:15 Calm 10.00 Fair CLR 74.8 74.8 100% 30 0.0
29 05:55 Calm 9.00 Fair CLR 75.2 75.2 100% 73 30 0.0
29 05:35 Calm 9.00 Fair CLR 75.4 75.4 100% 73 30 0.0
29 05:15 SE 3 9.00 Fair CLR 75.9 75.9 100% 75 29.99 0.0
29 04:55 SE 5 10.00 Fair CLR 76.5 75.9 98% 76 29.99 0.0
29 04:35 E 3 10.00 Fair CLR 76.5 75.7 98% 76 30 0.0
29 04:15 E 5 10.00 Fair CLR 76.6 75.9 98% 77 30 0.0
29 03:55 Calm 10.00 Fair CLR 77.4 76.1 96% 79 30 0.0
29 03:35 NE 3 10.00 Fair CLR 78.4 76.3 93% 82 30 0.0
29 03:15 SE 5 10.00 Fair CLR 78.3 76.3 94% 81 29.99 0.0
29 02:55 SE 5 10.00 Fair CLR 79 76.5 92% 83 29.98 0.0
29 02:35 S 7 10.00 Fair CLR 79.3 76.5 91% 84 29.98 0.0
29 02:15 S 8 10.00 Fair CLR 80.1 76.5 89% 86 29.98 0.0
29 01:55 S 8 10.00 Fair CLR 80.4 76.5 88% 86 29.98 0.0
29 01:35 S 9 10.00 Fair CLR 80.6 76.5 87% 87 29.98 0.0
29 01:15 S 7 10.00 Fair CLR 81 76.6 87% 88 29.98 0.0
29 00:55 S 8 10.00 Fair CLR 81.5 76.5 92.7 81.5 85% 89 29.99 0.0
29 00:35 S 6 10.00 Fair CLR 81.9 76.1 83% 89 29.99 0.0
29 00:15 SE 9 10.00 Fair CLR 82.6 75.4 79% 90 30.01 0.0
28 23:55 SE 9 10.00 Fair CLR 83.1 74.3 75% 90 30.01 0.0
28 23:35 SE 8 10.00 Fair CLR 83.7 73.8 72% 90 30.02 0.0
28 23:15 SE 13 10.00 Fair CLR 84 72.7 69% 90 30.01 0.0
28 22:55 SE 12 10.00 Fair CLR 84.9 71.6 64% 91 30.01 0.0
28 22:35 SE 12 9.00 Fair CLR 85.5 71.1 62% 91 30.01 0.0
28 22:15 E 12 10.00 Fair CLR 86.2 70.7 60% 91 30 0.0
28 21:55 SE 14 10.00 Fair CLR 86.7 70.3 58% 92 29.99 0.0
28 21:35 SE 13 10.00 Fair CLR 87.3 70.2 57% 92 29.98 0.0
28 21:15 SE 12 10.00 Fair CLR 88.2 69.8 55% 93 29.98 0.0
28 20:55 E 13 10.00 Fair CLR 89.1 68.5 51% 93 29.97 0.0
28 20:35 SE 14 10.00 Fair CLR 89.8 66.9 47% 93 29.96 0.0
28 20:15 E 15 G 21 9.00 Fair CLR 90.5 66.2 45% 93 29.95 0.0
28 19:55 SE 16 G 22 8.00 Fair CLR 91.2 66.2 44% 94 29.94 0.0
28 19:35 E 15 8.00 Fair CLR 91.9 67.1 44% 95 29.93 0.0
28 19:15 E 18 G 25 8.00 Fair CLR 92.7 67.8 44% 97 29.92 0.0
28 18:55 SE 14 G 22 9.00 A Few Clouds FEW021 92.5 68 102 91.4 45% 97 29.91 0.0
28 18:35 SE 20 G 31 7.00 Light Rain FEW021 91.8 71.4 51% 99 29.91 0.0
28 18:15 E 21 G 33 8.00 Fair and Breezy CLR 99.7 67.6 35% 105 29.89 0.0
28 17:55 SE 10 7.00 Fair CLR 99.3 62.1 29% 101 29.89 0.0
28 17:35 SE 14 G 18 8.00 Fair CLR 100.4 62.4 29% 102 29.89 0.0
28 17:15 Vrbl 5 9.00 Fair CLR 100.9 61.9 28% 103 29.89 0.0
28 16:55 E 9 G 17 9.00 Fair CLR 100.2 61.7 28% 102 29.89 0.0
28 16:35 SE 10 G 20 9.00 Fair CLR 101.3 62.1 28% 103 29.9 0.0
28 16:15 SE 13 9.00 Fair CLR 100.9 63.5 29% 104 29.91 0.0
28 15:55 SE 9 G 18 9.00 A Few Clouds FEW360 100.2 63.7 30% 103 29.93 0.0
28 15:35 SE 13 9.00 A Few Clouds FEW370 100.6 63.5 30% 103 29.94 0.0
28 15:15 Vrbl 6 9.00 A Few Clouds FEW370 99.7 63.7 31% 102 29.95 0.0
28 14:55 E 9 9.00 Fair CLR 98.4 64.6 33% 101 29.96 0.0
28 14:35 E 9 9.00 A Few Clouds FEW350 98.1 64 33% 101 29.97 0.0
28 14:15 E 10 8.00 A Few Clouds FEW310 97.9 64 33% 100 29.97 0.0
28 13:55 SE 8 9.00 A Few Clouds FEW300 98.2 64.6 33% 101 29.98 0.0
28 13:35 Vrbl 7 9.00 Fair CLR 97.5 64.9 34% 100 29.99 0.0
28 13:15 Vrbl 3 9.00 A Few Clouds FEW310 96.1 65.1 36% 99 30 0.0
28 12:55 Vrbl 6 9.00 A Few Clouds FEW360 95.9 65.7 96.4 73 37% 99 30 0.0
Date Time (cdt) Wind (mph) Vis. (mi.) Weather Sky Cond. Air Dwpt Max. Min. Relative Humidity Wind Chill (°F) Heat Index (°F) altimeter (in) sea level (mb) 1 hr 3 hr 6 hr
6 hour
Temperature (ºF) Pressure Precipitation (in)